Terminal Aerodrome Forecast
Issued by NWS Portland, ME

Home | Current Version | Previous Version | Text Only | Print | Product List | Glossary On
Versions: 1 2 3 4 5 6 7 8 9 10 11 12 13 14 15 16 17 18 19 20
000
FTUS41 KGYX 251120
TAFPWM
TAF
KPWM 251120Z 2512/2612 00000KT P6SM SCT120 BKN200
     FM251300 VRB04KT P6SM SCT100 BKN200
     FM251700 15009KT P6SM SCT050 BKN100
     FM252300 VRB04KT P6SM -SHRA SCT050 BKN070 OVC100
     FM260200 VRB03KT 4SM BR BKN015 OVC025
     FM260900 26005KT P6SM SCT030 SCT120=

USA.gov is the U.S. government's official web portal to all federal, state and local government web resources and services.